sensor_id;sensor_type;location;lat;lon;timestamp;temperature;humidity
44461;DHT22;30162;53.642;10.640;2022-10-04T00:01:48;15.90;94.70
44461;DHT22;30162;53.642;10.640;2022-10-04T00:04:24;15.80;95.00
44461;DHT22;30162;53.642;10.640;2022-10-04T00:07:06;15.80;94.80
44461;DHT22;30162;53.642;10.640;2022-10-04T00:14:46;15.80;94.80
44461;DHT22;30162;53.642;10.640;2022-10-04T00:17:21;15.80;95.20
44461;DHT22;30162;53.642;10.640;2022-10-04T00:19:49;15.70;95.10
44461;DHT22;30162;53.642;10.640;2022-10-04T00:22:21;15.90;95.00
44461;DHT22;30162;53.642;10.640;2022-10-04T00:25:19;15.80;95.10
44461;DHT22;30162;53.642;10.640;2022-10-04T00:28:15;15.80;95.30
44461;DHT22;30162;53.642;10.640;2022-10-04T00:30:41;15.90;95.20
44461;DHT22;30162;53.642;10.640;2022-10-04T00:33:07;15.90;95.20
44461;DHT22;30162;53.642;10.640;2022-10-04T00:40:34;15.90;95.30
44461;DHT22;30162;53.642;10.640;2022-10-04T00:48:33;16.00;95.10
44461;DHT22;30162;53.642;10.640;2022-10-04T00:51:26;16.00;95.20
44461;DHT22;30162;53.642;10.640;2022-10-04T00:54:03;15.90;95.10
44461;DHT22;30162;53.642;10.640;2022-10-04T01:01:42;15.80;95.40
44461;DHT22;30162;53.642;10.640;2022-10-04T01:04:23;15.90;95.40
44461;DHT22;30162;53.642;10.640;2022-10-04T01:06:52;15.90;95.30
44461;DHT22;30162;53.642;10.640;2022-10-04T01:09:18;15.90;95.30
44461;DHT22;30162;53.642;10.640;2022-10-04T01:12:01;16.00;95.40
44461;DHT22;30162;53.642;10.640;2022-10-04T01:14:34;16.00;95.20
44461;DHT22;30162;53.642;10.640;2022-10-04T01:17:04;16.00;95.50
44461;DHT22;30162;53.642;10.640;2022-10-04T01:19:32;16.00;95.30
44461;DHT22;30162;53.642;10.640;2022-10-04T01:24:40;16.00;95.40
44461;DHT22;30162;53.642;10.640;2022-10-04T01:27:30;16.00;95.40
44461;DHT22;30162;53.642;10.640;2022-10-04T01:29:56;16.00;95.40
44461;DHT22;30162;53.642;10.640;2022-10-04T01:32:22;16.00;95.40
44461;DHT22;30162;53.642;10.640;2022-10-04T01:34:48;16.00;95.30
44461;DHT22;30162;53.642;10.640;2022-10-04T01:37:13;16.00;95.40
44461;DHT22;30162;53.642;10.640;2022-10-04T01:39:39;16.00;95.40
44461;DHT22;30162;53.642;10.640;2022-10-04T01:44:47;16.10;95.30
44461;DHT22;30162;53.642;10.640;2022-10-04T01:47:22;16.20;95.10
44461;DHT22;30162;53.642;10.640;2022-10-04T01:49:49;16.20;94.90
44461;DHT22;30162;53.642;10.640;2022-10-04T01:52:35;16.20;94.80
44461;DHT22;30162;53.642;10.640;2022-10-04T01:55:06;16.10;94.90
44461;DHT22;30162;53.642;10.640;2022-10-04T01:57:41;16.10;95.10
44461;DHT22;30162;53.642;10.640;2022-10-04T02:00:11;16.20;95.30
44461;DHT22;30162;53.642;10.640;2022-10-04T02:05:12;16.10;95.10
44461;DHT22;30162;53.642;10.640;2022-10-04T02:07:40;16.00;95.10
44461;DHT22;30162;53.642;10.640;2022-10-04T02:10:09;16.00;95.00
44461;DHT22;30162;53.642;10.640;2022-10-04T02:12:36;16.00;95.10
44461;DHT22;30162;53.642;10.640;2022-10-04T02:15:08;16.00;95.00
44461;DHT22;30162;53.642;10.640;2022-10-04T02:17:39;15.90;95.20
44461;DHT22;30162;53.642;10.640;2022-10-04T02:20:13;15.90;95.20
44461;DHT22;30162;53.642;10.640;2022-10-04T02:22:40;16.00;95.20
44461;DHT22;30162;53.642;10.640;2022-10-04T02:25:08;16.00;95.20
44461;DHT22;30162;53.642;10.640;2022-10-04T02:27:34;16.00;94.90
44461;DHT22;30162;53.642;10.640;2022-10-04T02:30:05;15.90;94.90
44461;DHT22;30162;53.642;10.640;2022-10-04T02:32:32;15.90;94.80
44461;DHT22;30162;53.642;10.640;2022-10-04T02:35:17;15.80;95.00
44461;DHT22;30162;53.642;10.640;2022-10-04T02:37:44;15.80;95.00
44461;DHT22;30162;53.642;10.640;2022-10-04T02:40:13;15.70;95.00
44461;DHT22;30162;53.642;10.640;2022-10-04T02:45:26;15.70;95.00
44461;DHT22;30162;53.642;10.640;2022-10-04T02:47:57;15.50;95.10
44461;DHT22;30162;53.642;10.640;2022-10-04T02:50:34;15.60;95.10
44461;DHT22;30162;53.642;10.640;2022-10-04T02:53:11;15.60;94.80
44461;DHT22;30162;53.642;10.640;2022-10-04T02:55:38;15.40;95.00
44461;DHT22;30162;53.642;10.640;2022-10-04T02:58:13;15.30;94.90
44461;DHT22;30162;53.642;10.640;2022-10-04T03:00:48;15.30;95.20
44461;DHT22;30162;53.642;10.640;2022-10-04T03:03:29;15.30;94.90
44461;DHT22;30162;53.642;10.640;2022-10-04T03:06:08;15.20;95.10
44461;DHT22;30162;53.642;10.640;2022-10-04T03:11:09;15.20;94.70
44461;DHT22;30162;53.642;10.640;2022-10-04T03:13:36;15.20;94.90
44461;DHT22;30162;53.642;10.640;2022-10-04T03:16:04;15.10;94.90
44461;DHT22;30162;53.642;10.640;2022-10-04T03:18:30;15.10;94.70
44461;DHT22;30162;53.642;10.640;2022-10-04T03:21:01;15.10;94.70
44461;DHT22;30162;53.642;10.640;2022-10-04T03:23:29;15.10;94.80
44461;DHT22;30162;53.642;10.640;2022-10-04T03:28:39;15.10;94.60
44461;DHT22;30162;53.642;10.640;2022-10-04T03:31:04;15.10;94.50
44461;DHT22;30162;53.642;10.640;2022-10-04T03:33:30;15.10;94.30
44461;DHT22;30162;53.642;10.640;2022-10-04T03:35:58;15.00;94.20
44461;DHT22;30162;53.642;10.640;2022-10-04T03:38:25;14.90;94.50
44461;DHT22;30162;53.642;10.640;2022-10-04T03:40:56;14.90;94.80
44461;DHT22;30162;53.642;10.640;2022-10-04T03:43:26;14.90;94.70
44461;DHT22;30162;53.642;10.640;2022-10-04T03:45:53;15.00;94.60
44461;DHT22;30162;53.642;10.640;2022-10-04T03:48:38;14.90;94.80
44461;DHT22;30162;53.642;10.640;2022-10-04T03:51:06;15.00;94.70
44461;DHT22;30162;53.642;10.640;2022-10-04T03:53:37;14.90;94.50
44461;DHT22;30162;53.642;10.640;2022-10-04T03:58:35;14.80;94.60
44461;DHT22;30162;53.642;10.640;2022-10-04T04:01:44;14.80;94.30
44461;DHT22;30162;53.642;10.640;2022-10-04T04:07:20;14.70;94.50
44461;DHT22;30162;53.642;10.640;2022-10-04T04:12:38;14.50;94.10
44461;DHT22;30162;53.642;10.640;2022-10-04T04:15:08;14.50;94.30
44461;DHT22;30162;53.642;10.640;2022-10-04T04:17:45;14.60;94.30
44461;DHT22;30162;53.642;10.640;2022-10-04T04:25:52;14.30;94.70
44461;DHT22;30162;53.642;10.640;2022-10-04T04:28:33;14.30;94.70
44461;DHT22;30162;53.642;10.640;2022-10-04T04:31:53;14.40;94.70
44461;DHT22;30162;53.642;10.640;2022-10-04T04:34:04;14.50;94.70
44461;DHT22;30162;53.642;10.640;2022-10-04T04:36:38;14.50;94.60
44461;DHT22;30162;53.642;10.640;2022-10-04T04:39:21;14.40;94.60
44461;DHT22;30162;53.642;10.640;2022-10-04T04:44:46;14.40;94.70
44461;DHT22;30162;53.642;10.640;2022-10-04T04:47:36;14.50;94.50
44461;DHT22;30162;53.642;10.640;2022-10-04T04:50:14;14.50;94.60
44461;DHT22;30162;53.642;10.640;2022-10-04T04:52:51;14.40;94.70
44461;DHT22;30162;53.642;10.640;2022-10-04T04:55:31;14.60;94.60
44461;DHT22;30162;53.642;10.640;2022-10-04T04:57:58;14.50;94.40
44461;DHT22;30162;53.642;10.640;2022-10-04T05:00:29;14.60;94.60
44461;DHT22;30162;53.642;10.640;2022-10-04T05:02:58;14.50;94.60
44461;DHT22;30162;53.642;10.640;2022-10-04T05:08:21;14.60;94.30
44461;DHT22;30162;53.642;10.640;2022-10-04T05:11:00;14.60;94.40
44461;DHT22;30162;53.642;10.640;2022-10-04T05:16:15;14.40;94.90
44461;DHT22;30162;53.642;10.640;2022-10-04T05:18:44;14.40;94.70
44461;DHT22;30162;53.642;10.640;2022-10-04T05:21:21;14.40;94.70
44461;DHT22;30162;53.642;10.640;2022-10-04T05:23:48;14.30;94.60
44461;DHT22;30162;53.642;10.640;2022-10-04T05:26:15;14.40;94.90
44461;DHT22;30162;53.642;10.640;2022-10-04T05:28:45;14.40;94.90
44461;DHT22;30162;53.642;10.640;2022-10-04T05:34:14;14.40;94.80
44461;DHT22;30162;53.642;10.640;2022-10-04T05:39:26;14.30;94.80
44461;DHT22;30162;53.642;10.640;2022-10-04T05:42:03;14.30;94.80
44461;DHT22;30162;53.642;10.640;2022-10-04T05:44:35;14.40;94.80
44461;DHT22;30162;53.642;10.640;2022-10-04T05:47:05;14.30;94.60
44461;DHT22;30162;53.642;10.640;2022-10-04T05:49:43;14.30;94.60
44461;DHT22;30162;53.642;10.640;2022-10-04T05:52:27;14.30;94.70
44461;DHT22;30162;53.642;10.640;2022-10-04T06:00:19;14.30;94.80
44461;DHT22;30162;53.642;10.640;2022-10-04T06:05:52;14.40;94.90
44461;DHT22;30162;53.642;10.640;2022-10-04T06:08:24;14.30;94.70
44461;DHT22;30162;53.642;10.640;2022-10-04T06:24:16;14.40;95.00
44461;DHT22;30162;53.642;10.640;2022-10-04T06:26:47;14.40;94.90
44461;DHT22;30162;53.642;10.640;2022-10-04T06:29:23;14.50;94.90
44461;DHT22;30162;53.642;10.640;2022-10-04T06:35:16;14.70;94.90
44461;DHT22;30162;53.642;10.640;2022-10-04T06:46:06;14.70;94.90
44461;DHT22;30162;53.642;10.640;2022-10-04T07:00:19;14.90;94.80
44461;DHT22;30162;53.642;10.640;2022-10-04T07:03:16;15.00;94.90
44461;DHT22;30162;53.642;10.640;2022-10-04T07:05:49;15.10;94.90
44461;DHT22;30162;53.642;10.640;2022-10-04T07:14:19;15.40;94.90
44461;DHT22;30162;53.642;10.640;2022-10-04T07:16:49;15.60;94.80
44461;DHT22;30162;53.642;10.640;2022-10-04T07:27:09;16.00;94.10
44461;DHT22;30162;53.642;10.640;2022-10-04T07:29:38;16.10;94.20
44461;DHT22;30162;53.642;10.640;2022-10-04T07:32:14;16.10;94.00
44461;DHT22;30162;53.642;10.640;2022-10-04T07:35:53;16.00;94.10
44461;DHT22;30162;53.642;10.640;2022-10-04T07:38:06;16.00;94.20
44461;DHT22;30162;53.642;10.640;2022-10-04T07:43:27;16.00;94.50
44461;DHT22;30162;53.642;10.640;2022-10-04T07:46:05;16.00;94.40
44461;DHT22;30162;53.642;10.640;2022-10-04T07:48:39;16.10;94.30
44461;DHT22;30162;53.642;10.640;2022-10-04T07:51:35;16.10;94.60
44461;DHT22;30162;53.642;10.640;2022-10-04T07:54:18;16.10;94.70
44461;DHT22;30162;53.642;10.640;2022-10-04T07:56:58;16.20;94.50
44461;DHT22;30162;53.642;10.640;2022-10-04T07:59:42;16.20;94.40
44461;DHT22;30162;53.642;10.640;2022-10-04T08:05:20;16.30;94.50
44461;DHT22;30162;53.642;10.640;2022-10-04T08:37:07;17.10;93.00
44461;DHT22;30162;53.642;10.640;2022-10-04T08:59:17;17.30;92.90
44461;DHT22;30162;53.642;10.640;2022-10-04T09:30:13;19.00;91.80
44461;DHT22;30162;53.642;10.640;2022-10-04T09:32:47;19.30;90.80
44461;DHT22;30162;53.642;10.640;2022-10-04T09:39:16;19.40;90.40
44461;DHT22;30162;53.642;10.640;2022-10-04T09:47:15;19.60;90.50
44461;DHT22;30162;53.642;10.640;2022-10-04T09:50:17;20.20;89.80
44461;DHT22;30162;53.642;10.640;2022-10-04T09:56:01;20.70;87.20
44461;DHT22;30162;53.642;10.640;2022-10-04T10:01:23;20.60;87.80
44461;DHT22;30162;53.642;10.640;2022-10-04T10:18:31;19.40;89.30
44461;DHT22;30162;53.642;10.640;2022-10-04T10:21:28;19.80;88.80
44461;DHT22;30162;53.642;10.640;2022-10-04T10:35:00;20.40;87.40
44461;DHT22;30162;53.642;10.640;2022-10-04T10:40:39;20.50;86.60
44461;DHT22;30162;53.642;10.640;2022-10-04T10:43:23;20.70;87.20
44461;DHT22;30162;53.642;10.640;2022-10-04T10:49:21;20.50;85.80
44461;DHT22;30162;53.642;10.640;2022-10-04T11:00:21;21.20;83.20
44461;DHT22;30162;53.642;10.640;2022-10-04T11:03:29;21.50;83.70
44461;DHT22;30162;53.642;10.640;2022-10-04T11:09:33;22.40;82.40
44461;DHT22;30162;53.642;10.640;2022-10-04T11:17:42;22.50;80.90
44461;DHT22;30162;53.642;10.640;2022-10-04T11:26:54;23.10;79.80
44461;DHT22;30162;53.642;10.640;2022-10-04T11:43:00;22.30;81.20
44461;DHT22;30162;53.642;10.640;2022-10-04T11:45:55;22.50;79.50
44461;DHT22;30162;53.642;10.640;2022-10-04T11:48:49;22.60;80.40
44461;DHT22;30162;53.642;10.640;2022-10-04T11:51:32;22.50;78.60
44461;DHT22;30162;53.642;10.640;2022-10-04T11:59:48;22.10;80.20
44461;DHT22;30162;53.642;10.640;2022-10-04T12:08:26;22.30;78.60
44461;DHT22;30162;53.642;10.640;2022-10-04T12:26:53;21.80;80.10
44461;DHT22;30162;53.642;10.640;2022-10-04T12:32:05;21.70;80.40
44461;DHT22;30162;53.642;10.640;2022-10-04T12:37:28;21.80;80.40
44461;DHT22;30162;53.642;10.640;2022-10-04T12:40:14;22.00;78.90
44461;DHT22;30162;53.642;10.640;2022-10-04T12:43:20;22.10;79.10
44461;DHT22;30162;53.642;10.640;2022-10-04T12:48:40;22.10;79.40
44461;DHT22;30162;53.642;10.640;2022-10-04T12:51:33;22.30;78.00
44461;DHT22;30162;53.642;10.640;2022-10-04T12:59:53;21.60;78.80
44461;DHT22;30162;53.642;10.640;2022-10-04T13:02:34;21.50;79.50
44461;DHT22;30162;53.642;10.640;2022-10-04T13:05:20;21.30;80.60
44461;DHT22;30162;53.642;10.640;2022-10-04T13:07:56;21.50;80.80
44461;DHT22;30162;53.642;10.640;2022-10-04T13:13:30;21.70;79.80
44461;DHT22;30162;53.642;10.640;2022-10-04T13:19:08;21.80;78.10
44461;DHT22;30162;53.642;10.640;2022-10-04T13:27:37;21.80;79.30
44461;DHT22;30162;53.642;10.640;2022-10-04T13:32:41;21.80;78.70
44461;DHT22;30162;53.642;10.640;2022-10-04T13:35:22;21.90;78.30
44461;DHT22;30162;53.642;10.640;2022-10-04T13:38:16;21.60;80.00
44461;DHT22;30162;53.642;10.640;2022-10-04T13:49:19;21.40;79.20
44461;DHT22;30162;53.642;10.640;2022-10-04T13:58:11;21.70;77.90
44461;DHT22;30162;53.642;10.640;2022-10-04T14:01:21;21.80;79.00
44461;DHT22;30162;53.642;10.640;2022-10-04T14:04:18;21.50;79.70
44461;DHT22;30162;53.642;10.640;2022-10-04T14:07:19;21.40;79.50
44461;DHT22;30162;53.642;10.640;2022-10-04T14:15:28;21.00;78.30
44461;DHT22;30162;53.642;10.640;2022-10-04T14:18:25;20.90;81.60
44461;DHT22;30162;53.642;10.640;2022-10-04T14:21:02;21.20;81.10
44461;DHT22;30162;53.642;10.640;2022-10-04T14:32:23;20.90;80.50
44461;DHT22;30162;53.642;10.640;2022-10-04T14:46:22;20.70;80.80
44461;DHT22;30162;53.642;10.640;2022-10-04T14:51:43;20.90;81.70
44461;DHT22;30162;53.642;10.640;2022-10-04T14:57:19;20.70;83.30
44461;DHT22;30162;53.642;10.640;2022-10-04T15:10:48;20.30;83.00
44461;DHT22;30162;53.642;10.640;2022-10-04T15:29:31;20.20;84.60
44461;DHT22;30162;53.642;10.640;2022-10-04T15:34:58;20.30;83.50
44461;DHT22;30162;53.642;10.640;2022-10-04T15:37:44;20.10;84.40
44461;DHT22;30162;53.642;10.640;2022-10-04T15:54:41;19.30;87.80
44461;DHT22;30162;53.642;10.640;2022-10-04T15:57:32;19.20;87.80
44461;DHT22;30162;53.642;10.640;2022-10-04T16:00:13;19.00;88.60
44461;DHT22;30162;53.642;10.640;2022-10-04T16:03:07;18.70;89.90
44461;DHT22;30162;53.642;10.640;2022-10-04T16:05:44;18.70;89.20
44461;DHT22;30162;53.642;10.640;2022-10-04T16:08:45;18.40;90.20
44461;DHT22;30162;53.642;10.640;2022-10-04T16:11:49;18.20;90.30
44461;DHT22;30162;53.642;10.640;2022-10-04T16:22:34;17.90;90.90
44461;DHT22;30162;53.642;10.640;2022-10-04T16:25:36;17.90;90.90
44461;DHT22;30162;53.642;10.640;2022-10-04T16:33:58;17.50;91.40
44461;DHT22;30162;53.642;10.640;2022-10-04T16:36:29;17.50;91.50
44461;DHT22;30162;53.642;10.640;2022-10-04T16:39:09;17.40;91.60
44461;DHT22;30162;53.642;10.640;2022-10-04T16:42:00;17.40;91.60
44461;DHT22;30162;53.642;10.640;2022-10-04T16:44:33;17.40;91.50
44461;DHT22;30162;53.642;10.640;2022-10-04T16:47:02;17.50;91.50
44461;DHT22;30162;53.642;10.640;2022-10-04T16:49:51;17.20;91.80
44461;DHT22;30162;53.642;10.640;2022-10-04T16:52:40;17.00;92.00
44461;DHT22;30162;53.642;10.640;2022-10-04T16:55:19;16.90;92.30
44461;DHT22;30162;53.642;10.640;2022-10-04T17:23:11;16.30;93.20
44461;DHT22;30162;53.642;10.640;2022-10-04T17:28:45;16.20;93.60
44461;DHT22;30162;53.642;10.640;2022-10-04T17:31:14;16.30;93.40
44461;DHT22;30162;53.642;10.640;2022-10-04T17:36:46;16.30;93.10
44461;DHT22;30162;53.642;10.640;2022-10-04T17:39:27;16.10;93.30
44461;DHT22;30162;53.642;10.640;2022-10-04T17:42:13;16.10;93.20
44461;DHT22;30162;53.642;10.640;2022-10-04T17:47:38;16.10;93.20
44461;DHT22;30162;53.642;10.640;2022-10-04T17:50:34;16.10;93.10
44461;DHT22;30162;53.642;10.640;2022-10-04T17:53:24;16.00;93.20
44461;DHT22;30162;53.642;10.640;2022-10-04T17:56:11;16.00;93.10
44461;DHT22;30162;53.642;10.640;2022-10-04T17:58:52;15.90;93.30
44461;DHT22;30162;53.642;10.640;2022-10-04T18:01:30;15.90;93.40
44461;DHT22;30162;53.642;10.640;2022-10-04T18:04:25;15.70;93.40
44461;DHT22;30162;53.642;10.640;2022-10-04T18:07:23;15.80;93.50
44461;DHT22;30162;53.642;10.640;2022-10-04T18:09:52;15.50;93.60
44461;DHT22;30162;53.642;10.640;2022-10-04T18:12:42;15.60;93.50
44461;DHT22;30162;53.642;10.640;2022-10-04T18:15:19;15.60;93.70
44461;DHT22;30162;53.642;10.640;2022-10-04T18:17:49;15.60;93.60
44461;DHT22;30162;53.642;10.640;2022-10-04T18:23:12;15.50;93.60
44461;DHT22;30162;53.642;10.640;2022-10-04T18:25:40;15.50;93.80
44461;DHT22;30162;53.642;10.640;2022-10-04T18:30:33;15.40;93.90
44461;DHT22;30162;53.642;10.640;2022-10-04T18:32:59;15.40;93.60
44461;DHT22;30162;53.642;10.640;2022-10-04T18:35:32;15.30;93.80
44461;DHT22;30162;53.642;10.640;2022-10-04T18:40:39;15.40;93.50
44461;DHT22;30162;53.642;10.640;2022-10-04T18:48:43;15.30;94.10
44461;DHT22;30162;53.642;10.640;2022-10-04T18:51:29;15.20;93.90
44461;DHT22;30162;53.642;10.640;2022-10-04T18:57:19;15.40;94.10
44461;DHT22;30162;53.642;10.640;2022-10-04T19:00:11;15.40;93.90
44461;DHT22;30162;53.642;10.640;2022-10-04T19:03:15;15.30;94.00
44461;DHT22;30162;53.642;10.640;2022-10-04T19:05:53;15.30;94.00
44461;DHT22;30162;53.642;10.640;2022-10-04T19:09:03;15.20;94.00
44461;DHT22;30162;53.642;10.640;2022-10-04T19:11:51;15.30;94.30
44461;DHT22;30162;53.642;10.640;2022-10-04T19:14:35;15.30;94.10
44461;DHT22;30162;53.642;10.640;2022-10-04T19:17:27;15.30;93.90
44461;DHT22;30162;53.642;10.640;2022-10-04T19:20:10;15.50;93.80
44461;DHT22;30162;53.642;10.640;2022-10-04T19:25:38;15.40;94.00
44461;DHT22;30162;53.642;10.640;2022-10-04T19:28:19;15.30;93.90
44461;DHT22;30162;53.642;10.640;2022-10-04T19:38:54;15.20;93.60
44461;DHT22;30162;53.642;10.640;2022-10-04T19:41:46;15.10;93.90
44461;DHT22;30162;53.642;10.640;2022-10-04T19:44:38;15.10;94.00
44461;DHT22;30162;53.642;10.640;2022-10-04T19:50:19;14.90;93.80
44461;DHT22;30162;53.642;10.640;2022-10-04T19:52:47;15.10;93.80
44461;DHT22;30162;53.642;10.640;2022-10-04T19:55:21;15.10;93.70
44461;DHT22;30162;53.642;10.640;2022-10-04T20:00:27;14.80;93.80
44461;DHT22;30162;53.642;10.640;2022-10-04T20:02:53;14.80;93.70
44461;DHT22;30162;53.642;10.640;2022-10-04T20:05:20;14.60;93.70
44461;DHT22;30162;53.642;10.640;2022-10-04T20:07:57;14.70;93.90
44461;DHT22;30162;53.642;10.640;2022-10-04T20:10:33;14.70;93.90
44461;DHT22;30162;53.642;10.640;2022-10-04T20:13:17;14.80;93.80
44461;DHT22;30162;53.642;10.640;2022-10-04T20:15:57;14.70;93.70
44461;DHT22;30162;53.642;10.640;2022-10-04T20:26:06;14.40;93.80
44461;DHT22;30162;53.642;10.640;2022-10-04T20:31:01;14.20;94.30
44461;DHT22;30162;53.642;10.640;2022-10-04T20:33:48;14.30;94.30
44461;DHT22;30162;53.642;10.640;2022-10-04T20:44:00;14.40;94.10
44461;DHT22;30162;53.642;10.640;2022-10-04T20:46:32;14.30;94.10
44461;DHT22;30162;53.642;10.640;2022-10-04T20:49:01;14.20;94.10
44461;DHT22;30162;53.642;10.640;2022-10-04T20:51:28;14.20;94.50
44461;DHT22;30162;53.642;10.640;2022-10-04T20:53:57;14.30;94.00
44461;DHT22;30162;53.642;10.640;2022-10-04T20:56:29;14.20;94.00
44461;DHT22;30162;53.642;10.640;2022-10-04T20:58:56;14.20;94.20
44461;DHT22;30162;53.642;10.640;2022-10-04T21:06:56;14.10;94.70
44461;DHT22;30162;53.642;10.640;2022-10-04T21:09:22;14.00;94.90
44461;DHT22;30162;53.642;10.640;2022-10-04T21:11:52;14.20;95.00
44461;DHT22;30162;53.642;10.640;2022-10-04T21:14:22;14.20;95.00
44461;DHT22;30162;53.642;10.640;2022-10-04T21:16:49;14.20;94.80
44461;DHT22;30162;53.642;10.640;2022-10-04T21:27:11;14.50;94.70
44461;DHT22;30162;53.642;10.640;2022-10-04T21:29:49;14.60;94.80
44461;DHT22;30162;53.642;10.640;2022-10-04T21:32:18;14.70;94.70
44461;DHT22;30162;53.642;10.640;2022-10-04T21:34:43;14.70;94.70
44461;DHT22;30162;53.642;10.640;2022-10-04T21:37:09;14.90;94.70
44461;DHT22;30162;53.642;10.640;2022-10-04T21:39:34;14.80;94.40
44461;DHT22;30162;53.642;10.640;2022-10-04T21:42:00;14.70;94.50
44461;DHT22;30162;53.642;10.640;2022-10-04T21:44:25;14.80;94.50
44461;DHT22;30162;53.642;10.640;2022-10-04T21:46:51;14.70;94.50
44461;DHT22;30162;53.642;10.640;2022-10-04T21:49:16;14.70;94.60
44461;DHT22;30162;53.642;10.640;2022-10-04T21:51:42;14.90;94.70
44461;DHT22;30162;53.642;10.640;2022-10-04T21:54:07;14.80;94.20
44461;DHT22;30162;53.642;10.640;2022-10-04T21:56:33;14.70;94.50
44461;DHT22;30162;53.642;10.640;2022-10-04T21:58:58;14.70;94.50
44461;DHT22;30162;53.642;10.640;2022-10-04T22:01:24;14.80;94.30
44461;DHT22;30162;53.642;10.640;2022-10-04T22:03:50;14.80;94.10
44461;DHT22;30162;53.642;10.640;2022-10-04T22:06:16;14.80;94.30
44461;DHT22;30162;53.642;10.640;2022-10-04T22:08:41;14.80;94.20
44461;DHT22;30162;53.642;10.640;2022-10-04T22:11:07;14.60;94.40
44461;DHT22;30162;53.642;10.640;2022-10-04T22:13:33;14.50;94.40
44461;DHT22;30162;53.642;10.640;2022-10-04T22:15:58;14.60;94.40
44461;DHT22;30162;53.642;10.640;2022-10-04T22:18:24;14.60;94.50
44461;DHT22;30162;53.642;10.640;2022-10-04T22:20:50;14.60;94.40
44461;DHT22;30162;53.642;10.640;2022-10-04T22:23:18;14.60;94.60
44461;DHT22;30162;53.642;10.640;2022-10-04T22:25:44;14.60;94.60
44461;DHT22;30162;53.642;10.640;2022-10-04T22:28:19;14.70;94.30
44461;DHT22;30162;53.642;10.640;2022-10-04T22:30:45;14.50;94.40
44461;DHT22;30162;53.642;10.640;2022-10-04T22:33:35;14.60;94.40
44461;DHT22;30162;53.642;10.640;2022-10-04T22:36:34;14.60;94.40
44461;DHT22;30162;53.642;10.640;2022-10-04T22:39:12;14.60;94.40
44461;DHT22;30162;53.642;10.640;2022-10-04T22:41:52;14.50;94.60
44461;DHT22;30162;53.642;10.640;2022-10-04T22:44:21;14.60;94.50
44461;DHT22;30162;53.642;10.640;2022-10-04T22:46:55;14.70;94.30
44461;DHT22;30162;53.642;10.640;2022-10-04T22:49:30;14.80;94.20
44461;DHT22;30162;53.642;10.640;2022-10-04T22:51:58;14.70;94.30
44461;DHT22;30162;53.642;10.640;2022-10-04T22:54:30;14.90;94.40
44461;DHT22;30162;53.642;10.640;2022-10-04T22:56:56;14.90;94.00
44461;DHT22;30162;53.642;10.640;2022-10-04T22:59:37;14.90;94.10
44461;DHT22;30162;53.642;10.640;2022-10-04T23:02:13;15.00;94.10
44461;DHT22;30162;53.642;10.640;2022-10-04T23:04:40;14.90;94.10
44461;DHT22;30162;53.642;10.640;2022-10-04T23:07:07;15.00;93.80
44461;DHT22;30162;53.642;10.640;2022-10-04T23:09:33;14.90;94.10
44461;DHT22;30162;53.642;10.640;2022-10-04T23:11:58;14.90;94.10
44461;DHT22;30162;53.642;10.640;2022-10-04T23:14:24;14.90;94.10
44461;DHT22;30162;53.642;10.640;2022-10-04T23:16:49;14.80;94.20
44461;DHT22;30162;53.642;10.640;2022-10-04T23:19:16;14.80;94.20
44461;DHT22;30162;53.642;10.640;2022-10-04T23:21:47;14.80;94.20
44461;DHT22;30162;53.642;10.640;2022-10-04T23:24:17;14.80;94.10
44461;DHT22;30162;53.642;10.640;2022-10-04T23:26:45;14.60;94.10
44461;DHT22;30162;53.642;10.640;2022-10-04T23:29:31;14.70;94.20
44461;DHT22;30162;53.642;10.640;2022-10-04T23:31:57;14.70;94.10
44461;DHT22;30162;53.642;10.640;2022-10-04T23:34:33;14.70;94.00
44461;DHT22;30162;53.642;10.640;2022-10-04T23:36:59;14.70;93.90
44461;DHT22;30162;53.642;10.640;2022-10-04T23:39:30;14.80;93.70
44461;DHT22;30162;53.642;10.640;2022-10-04T23:41:57;14.60;93.80
44461;DHT22;30162;53.642;10.640;2022-10-04T23:44:28;14.50;93.90
44461;DHT22;30162;53.642;10.640;2022-10-04T23:46:54;14.50;94.10
44461;DHT22;30162;53.642;10.640;2022-10-04T23:49:20;14.50;94.30
44461;DHT22;30162;53.642;10.640;2022-10-04T23:51:47;14.40;93.90
44461;DHT22;30162;53.642;10.640;2022-10-04T23:54:15;14.40;94.00
44461;DHT22;30162;53.642;10.640;2022-10-04T23:56:43;14.40;94.10
44461;DHT22;30162;53.642;10.640;2022-10-04T23:59:17;14.30;94.20
